sensor_id;sensor_type;location;lat;lon;timestamp;pressure;altitude;pressure_sealevel;temperature;humidity
28008;BME280;15333;50.010;20.020;2023-08-31T00:01:16;98028.69;;;15.20;100.00
28008;BME280;15333;50.010;20.020;2023-08-31T00:04:17;98028.38;;;15.23;100.00
28008;BME280;15333;50.010;20.020;2023-08-31T00:07:18;98030.38;;;15.21;100.00
28008;BME280;15333;50.010;20.020;2023-08-31T00:10:19;98020.59;;;15.20;100.00
28008;BME280;15333;50.010;20.020;2023-08-31T00:13:20;98034.09;;;15.28;100.00
28008;BME280;15333;50.010;20.020;2023-08-31T00:16:24;98037.81;;;15.36;100.00
28008;BME280;15333;50.010;20.020;2023-08-31T00:19:26;98033.09;;;15.29;100.00
28008;BME280;15333;50.010;20.020;2023-08-31T00:22:27;98036.28;;;15.25;100.00
28008;BME280;15333;50.010;20.020;2023-08-31T00:25:29;98030.53;;;15.12;100.00
28008;BME280;15333;50.010;20.020;2023-08-31T00:28:30;98039.44;;;15.04;100.00
28008;BME280;15333;50.010;20.020;2023-08-31T00:31:31;98041.75;;;14.99;100.00
28008;BME280;15333;50.010;20.020;2023-08-31T00:34:34;98047.53;;;15.12;100.00
28008;BME280;15333;50.010;20.020;2023-08-31T00:37:35;98050.00;;;14.98;100.00
28008;BME280;15333;50.010;20.020;2023-08-31T00:40:39;98050.84;;;14.98;100.00
28008;BME280;15333;50.010;20.020;2023-08-31T00:43:41;98049.84;;;15.07;100.00
28008;BME280;15333;50.010;20.020;2023-08-31T00:46:42;98049.84;;;15.07;100.00
28008;BME280;15333;50.010;20.020;2023-08-31T00:49:47;98049.84;;;15.07;100.00
28008;BME280;15333;50.010;20.020;2023-08-31T00:52:48;98046.81;;;15.02;100.00
28008;BME280;15333;50.010;20.020;2023-08-31T00:55:49;98048.31;;;14.97;100.00
28008;BME280;15333;50.010;20.020;2023-08-31T00:58:50;98044.81;;;15.04;100.00
28008;BME280;15333;50.010;20.020;2023-08-31T01:02:11;98041.13;;;15.13;100.00
28008;BME280;15333;50.010;20.020;2023-08-31T01:12:10;98042.63;;;15.08;100.00
28008;BME280;15333;50.010;20.020;2023-08-31T01:15:14;98039.44;;;15.04;100.00
28008;BME280;15333;50.010;20.020;2023-08-31T01:18:17;98044.81;;;15.04;100.00
28008;BME280;15333;50.010;20.020;2023-08-31T01:21:25;98038.03;;;15.00;100.00
28008;BME280;15333;50.010;20.020;2023-08-31T01:24:30;98044.72;;;14.88;100.00
28008;BME280;15333;50.010;20.020;2023-08-31T01:27:32;98036.50;;;14.89;100.00
28008;BME280;15333;50.010;20.020;2023-08-31T01:30:32;98046.41;;;14.89;100.00
28008;BME280;15333;50.010;20.020;2023-08-31T01:33:33;98040.50;;;14.85;100.00
28008;BME280;15333;50.010;20.020;2023-08-31T01:36:38;98037.00;;;14.93;100.00
28008;BME280;15333;50.010;20.020;2023-08-31T01:39:56;98041.53;;;14.84;100.00
28008;BME280;15333;50.010;20.020;2023-08-31T01:43:01;98046.31;;;14.99;100.00
28008;BME280;15333;50.010;20.020;2023-08-31T01:46:04;98050.78;;;14.82;100.00
28008;BME280;15333;50.010;20.020;2023-08-31T01:49:07;98050.13;;;14.88;100.00
28008;BME280;15333;50.010;20.020;2023-08-31T01:52:08;98052.50;;;14.91;100.00
28008;BME280;15333;50.010;20.020;2023-08-31T01:55:09;98059.59;;;15.00;100.00
28008;BME280;15333;50.010;20.020;2023-08-31T01:58:10;98062.91;;;14.86;100.00
28008;BME280;15333;50.010;20.020;2023-08-31T02:01:11;98069.28;;;14.85;100.00
28008;BME280;15333;50.010;20.020;2023-08-31T02:04:14;98071.78;;;14.78;100.00
28008;BME280;15333;50.010;20.020;2023-08-31T02:07:15;98071.47;;;14.81;100.00
28008;BME280;15333;50.010;20.020;2023-08-31T02:10:16;98068.94;;;14.80;100.00
28008;BME280;15333;50.010;20.020;2023-08-31T02:13:17;98069.28;;;14.77;100.00
28008;BME280;15333;50.010;20.020;2023-08-31T02:16:18;98081.69;;;14.70;100.00
28008;BME280;15333;50.010;20.020;2023-08-31T02:19:19;98084.97;;;14.64;100.00
28008;BME280;15333;50.010;20.020;2023-08-31T02:22:20;98087.00;;;14.62;100.00
28008;BME280;15333;50.010;20.020;2023-08-31T02:25:22;98090.72;;;14.61;100.00
28008;BME280;15333;50.010;20.020;2023-08-31T02:28:23;98094.81;;;14.73;100.00
28008;BME280;15333;50.010;20.020;2023-08-31T02:31:24;98103.69;;;14.65;100.00
28008;BME280;15333;50.010;20.020;2023-08-31T02:34:25;98094.41;;;14.60;100.00
28008;BME280;15333;50.010;20.020;2023-08-31T02:37:26;98100.53;;;14.70;100.00
28008;BME280;15333;50.010;20.020;2023-08-31T02:40:27;98100.06;;;14.74;100.00
28008;BME280;15333;50.010;20.020;2023-08-31T02:43:28;98102.19;;;14.71;100.00
28008;BME280;15333;50.010;20.020;2023-08-31T02:46:31;98104.22;;;14.69;100.00
28008;BME280;15333;50.010;20.020;2023-08-31T02:49:31;98100.84;;;14.67;100.00
28008;BME280;15333;50.010;20.020;2023-08-31T02:52:32;98102.84;;;14.65;100.00
28008;BME280;15333;50.010;20.020;2023-08-31T02:55:33;98107.94;;;14.68;100.00
28008;BME280;15333;50.010;20.020;2023-08-31T02:58:34;98104.88;;;14.63;100.00
28008;BME280;15333;50.010;20.020;2023-08-31T03:01:35;98102.84;;;14.65;100.00
28008;BME280;15333;50.010;20.020;2023-08-31T03:04:36;98102.31;;;14.61;100.00
28008;BME280;15333;50.010;20.020;2023-08-31T03:07:37;98102.13;;;14.55;100.00
28008;BME280;15333;50.010;20.020;2023-08-31T03:10:38;98100.00;;;14.66;100.00
28008;BME280;15333;50.010;20.020;2023-08-31T03:13:39;98098.09;;;14.59;100.00
28008;BME280;15333;50.010;20.020;2023-08-31T03:16:41;98102.84;;;14.65;100.00
28008;BME280;15333;50.010;20.020;2023-08-31T03:19:42;98096.41;;;14.58;100.00
28008;BME280;15333;50.010;20.020;2023-08-31T03:22:46;98103.31;;;14.60;100.00
28008;BME280;15333;50.010;20.020;2023-08-31T03:25:46;98101.00;;;14.65;100.00
28008;BME280;15333;50.010;20.020;2023-08-31T03:28:47;98111.56;;;14.59;100.00
28008;BME280;15333;50.010;20.020;2023-08-31T03:31:49;98112.25;;;14.61;100.00
28008;BME280;15333;50.010;20.020;2023-08-31T03:34:51;98114.25;;;14.59;100.00
28008;BME280;15333;50.010;20.020;2023-08-31T03:37:55;98103.31;;;14.60;100.00
28008;BME280;15333;50.010;20.020;2023-08-31T03:40:57;98104.66;;;14.56;100.00
28008;BME280;15333;50.010;20.020;2023-08-31T03:43:58;98108.00;;;14.58;100.00
28008;BME280;15333;50.010;20.020;2023-08-31T03:46:59;98114.03;;;14.52;100.00
28008;BME280;15333;50.010;20.020;2023-08-31T03:50:00;98115.09;;;14.59;100.00
28008;BME280;15333;50.010;20.020;2023-08-31T03:53:02;98123.13;;;14.51;100.00
28008;BME280;15333;50.010;20.020;2023-08-31T03:56:04;98124.38;;;14.65;100.00
28008;BME280;15333;50.010;20.020;2023-08-31T03:59:05;98134.66;;;14.61;100.00
28008;BME280;15333;50.010;20.020;2023-08-31T04:02:06;98139.88;;;14.63;100.00
28008;BME280;15333;50.010;20.020;2023-08-31T04:05:07;98143.66;;;14.78;100.00
28008;BME280;15333;50.010;20.020;2023-08-31T04:08:09;98129.47;;;14.68;100.00
28008;BME280;15333;50.010;20.020;2023-08-31T04:11:11;98137.19;;;14.63;100.00
28008;BME280;15333;50.010;20.020;2023-08-31T04:14:11;98139.41;;;14.67;100.00
28008;BME280;15333;50.010;20.020;2023-08-31T04:17:12;98144.38;;;14.80;100.00
28008;BME280;15333;50.010;20.020;2023-08-31T04:20:13;98139.91;;;14.71;100.00
28008;BME280;15333;50.010;20.020;2023-08-31T04:23:14;98148.19;;;14.69;100.00
28008;BME280;15333;50.010;20.020;2023-08-31T04:26:15;98148.84;;;14.71;100.00
28008;BME280;15333;50.010;20.020;2023-08-31T04:29:18;98143.31;;;14.73;100.00
28008;BME280;15333;50.010;20.020;2023-08-31T04:32:18;98137.41;;;14.69;100.00
28008;BME280;15333;50.010;20.020;2023-08-31T04:35:19;98146.06;;;14.81;100.00
28008;BME280;15333;50.010;20.020;2023-08-31T04:38:20;98146.59;;;14.84;100.00
28008;BME280;15333;50.010;20.020;2023-08-31T04:41:21;98148.47;;;14.92;100.00
28008;BME280;15333;50.010;20.020;2023-08-31T04:44:22;98134.78;;;14.77;100.00
28008;BME280;15333;50.010;20.020;2023-08-31T04:47:23;98150.28;;;14.83;100.00
28008;BME280;15333;50.010;20.020;2023-08-31T04:50:25;98161.22;;;14.82;100.00
28008;BME280;15333;50.010;20.020;2023-08-31T04:53:26;98166.47;;;14.83;100.00
28008;BME280;15333;50.010;20.020;2023-08-31T04:56:30;98162.59;;;14.86;100.00
28008;BME280;15333;50.010;20.020;2023-08-31T04:59:33;98168.38;;;14.91;100.00
28008;BME280;15333;50.010;20.020;2023-08-31T05:02:33;98168.56;;;14.98;100.00
28008;BME280;15333;50.010;20.020;2023-08-31T05:05:34;98166.03;;;14.96;100.00
28008;BME280;15333;50.010;20.020;2023-08-31T05:08:35;98173.53;;;15.10;100.00
28008;BME280;15333;50.010;20.020;2023-08-31T05:11:36;98180.63;;;15.11;100.00
28008;BME280;15333;50.010;20.020;2023-08-31T05:14:37;98183.53;;;15.18;100.00
28008;BME280;15333;50.010;20.020;2023-08-31T05:17:40;98184.88;;;15.22;100.00
28008;BME280;15333;50.010;20.020;2023-08-31T05:20:45;98184.03;;;15.21;100.00
28008;BME280;15333;50.010;20.020;2023-08-31T05:23:46;98182.22;;;15.30;100.00
28008;BME280;15333;50.010;20.020;2023-08-31T05:26:47;98189.81;;;15.26;100.00
28008;BME280;15333;50.010;20.020;2023-08-31T05:29:48;98184.47;;;15.43;100.00
28008;BME280;15333;50.010;20.020;2023-08-31T05:32:49;98183.25;;;15.55;100.00
28008;BME280;15333;50.010;20.020;2023-08-31T05:35:51;98183.94;;;15.65;100.00
28008;BME280;15333;50.010;20.020;2023-08-31T05:38:51;98190.75;;;15.85;100.00
28008;BME280;15333;50.010;20.020;2023-08-31T05:41:53;98190.78;;;15.93;100.00
28008;BME280;15333;50.010;20.020;2023-08-31T05:44:54;98183.22;;;16.13;100.00
28008;BME280;15333;50.010;20.020;2023-08-31T05:47:55;98182.41;;;16.13;100.00
28008;BME280;15333;50.010;20.020;2023-08-31T05:50:55;98184.97;;;16.30;100.00
28008;BME280;15333;50.010;20.020;2023-08-31T05:53:56;98189.88;;;16.43;100.00
28008;BME280;15333;50.010;20.020;2023-08-31T05:56:57;98192.56;;;16.43;100.00
28008;BME280;15333;50.010;20.020;2023-08-31T05:59:58;98186.22;;;16.60;100.00
28008;BME280;15333;50.010;20.020;2023-08-31T06:02:59;98190.25;;;16.64;100.00
28008;BME280;15333;50.010;20.020;2023-08-31T06:06:01;98187.34;;;16.58;100.00
28008;BME280;15333;50.010;20.020;2023-08-31T06:09:02;98189.56;;;16.54;100.00
28008;BME280;15333;50.010;20.020;2023-08-31T06:12:05;98186.22;;;16.60;100.00
28008;BME280;15333;50.010;20.020;2023-08-31T06:15:07;98191.25;;;16.63;100.00
28008;BME280;15333;50.010;20.020;2023-08-31T06:18:08;98185.50;;;16.58;100.00
28008;BME280;15333;50.010;20.020;2023-08-31T06:21:09;98194.66;;;16.65;100.00
28008;BME280;15333;50.010;20.020;2023-08-31T06:24:10;98187.19;;;16.51;100.00
28008;BME280;15333;50.010;20.020;2023-08-31T06:27:13;98188.38;;;16.65;100.00
28008;BME280;15333;50.010;20.020;2023-08-31T06:30:17;98194.28;;;16.52;100.00
28008;BME280;15333;50.010;20.020;2023-08-31T06:33:19;98201.69;;;16.50;100.00
28008;BME280;15333;50.010;20.020;2023-08-31T06:36:21;98207.44;;;16.47;100.00
28008;BME280;15333;50.010;20.020;2023-08-31T06:39:21;98206.47;;;16.72;100.00
28008;BME280;15333;50.010;20.020;2023-08-31T06:42:23;98200.41;;;16.62;100.00
28008;BME280;15333;50.010;20.020;2023-08-31T06:45:24;98203.53;;;17.22;100.00
28008;BME280;15333;50.010;20.020;2023-08-31T06:48:26;98206.66;;;17.58;100.00
28008;BME280;15333;50.010;20.020;2023-08-31T06:51:27;98207.16;;;17.70;100.00
28008;BME280;15333;50.010;20.020;2023-08-31T06:54:28;98214.13;;;17.48;100.00
28008;BME280;15333;50.010;20.020;2023-08-31T06:57:29;98209.56;;;18.04;100.00
28008;BME280;15333;50.010;20.020;2023-08-31T07:00:30;98210.91;;;18.00;100.00
28008;BME280;15333;50.010;20.020;2023-08-31T07:03:33;98216.19;;;17.93;100.00
28008;BME280;15333;50.010;20.020;2023-08-31T07:06:35;98221.38;;;18.34;100.00
28008;BME280;15333;50.010;20.020;2023-08-31T07:09:36;98223.88;;;18.44;100.00
28008;BME280;15333;50.010;20.020;2023-08-31T07:12:37;98231.16;;;18.43;100.00
28008;BME280;15333;50.010;20.020;2023-08-31T07:15:38;98232.53;;;18.08;100.00
28008;BME280;15333;50.010;20.020;2023-08-31T07:18:39;98228.84;;;18.01;100.00
28008;BME280;15333;50.010;20.020;2023-08-31T07:21:40;98232.19;;;18.11;100.00
28008;BME280;15333;50.010;20.020;2023-08-31T07:24:41;98235.66;;;18.59;100.00
28008;BME280;15333;50.010;20.020;2023-08-31T07:27:42;98242.41;;;18.01;100.00
28008;BME280;15333;50.010;20.020;2023-08-31T07:30:43;98244.50;;;17.83;100.00
28008;BME280;15333;50.010;20.020;2023-08-31T07:33:44;98247.50;;;17.96;100.00
28008;BME280;15333;50.010;20.020;2023-08-31T07:36:45;98252.31;;;18.17;100.00
28008;BME280;15333;50.010;20.020;2023-08-31T07:39:46;98250.63;;;18.16;100.00
28008;BME280;15333;50.010;20.020;2023-08-31T07:42:47;98250.06;;;18.20;100.00
28008;BME280;15333;50.010;20.020;2023-08-31T07:45:49;98250.75;;;18.22;100.00
28008;BME280;15333;50.010;20.020;2023-08-31T07:48:50;98255.47;;;18.28;100.00
28008;BME280;15333;50.010;20.020;2023-08-31T07:51:51;98263.44;;;18.22;100.00
28008;BME280;15333;50.010;20.020;2023-08-31T07:54:52;98265.16;;;18.54;100.00
28008;BME280;15333;50.010;20.020;2023-08-31T07:57:54;98255.50;;;18.82;100.00
28008;BME280;15333;50.010;20.020;2023-08-31T08:00:55;98258.56;;;19.02;100.00
28008;BME280;15333;50.010;20.020;2023-08-31T08:03:56;98257.94;;;19.14;100.00
28008;BME280;15333;50.010;20.020;2023-08-31T08:06:57;98252.81;;;19.57;97.57
28008;BME280;15333;50.010;20.020;2023-08-31T08:09:58;98263.00;;;19.17;98.87
28008;BME280;15333;50.010;20.020;2023-08-31T08:13:00;98257.66;;;19.09;97.57
28008;BME280;15333;50.010;20.020;2023-08-31T08:16:01;98263.97;;;19.25;97.94
28008;BME280;15333;50.010;20.020;2023-08-31T08:19:02;98261.38;;;19.46;97.82
28008;BME280;15333;50.010;20.020;2023-08-31T08:22:04;98263.84;;;19.70;95.40
28008;BME280;15333;50.010;20.020;2023-08-31T08:25:05;98269.38;;;19.25;93.83
28008;BME280;15333;50.010;20.020;2023-08-31T08:28:06;98264.66;;;19.18;93.30
28008;BME280;15333;50.010;20.020;2023-08-31T08:31:07;98282.38;;;19.52;95.19
28008;BME280;15333;50.010;20.020;2023-08-31T08:34:08;98277.53;;;19.25;89.44
28008;BME280;15333;50.010;20.020;2023-08-31T08:37:09;98274.81;;;19.25;91.83
28008;BME280;15333;50.010;20.020;2023-08-31T08:40:10;98287.03;;;19.21;91.19
28008;BME280;15333;50.010;20.020;2023-08-31T08:43:12;98294.94;;;19.07;92.56
28008;BME280;15333;50.010;20.020;2023-08-31T08:46:14;98299.41;;;19.00;90.78
28008;BME280;15333;50.010;20.020;2023-08-31T08:49:16;98294.22;;;19.13;90.78
28008;BME280;15333;50.010;20.020;2023-08-31T08:52:17;98303.25;;;18.52;92.18
28008;BME280;15333;50.010;20.020;2023-08-31T08:55:19;98303.16;;;18.37;98.22
28008;BME280;15333;50.010;20.020;2023-08-31T08:58:22;98306.88;;;17.97;100.00
28008;BME280;15333;50.010;20.020;2023-08-31T09:01:24;98307.00;;;18.12;100.00
28008;BME280;15333;50.010;20.020;2023-08-31T09:04:25;98297.88;;;18.05;100.00
28008;BME280;15333;50.010;20.020;2023-08-31T09:07:29;98297.47;;;18.24;100.00
28008;BME280;15333;50.010;20.020;2023-08-31T09:10:40;98294.88;;;17.92;100.00
28008;BME280;15333;50.010;20.020;2023-08-31T09:13:41;98296.53;;;18.09;100.00
28008;BME280;15333;50.010;20.020;2023-08-31T09:16:47;98300.84;;;18.26;100.00
28008;BME280;15333;50.010;20.020;2023-08-31T09:19:58;98302.75;;;18.57;100.00
28008;BME280;15333;50.010;20.020;2023-08-31T09:23:00;98303.34;;;18.75;100.00
28008;BME280;15333;50.010;20.020;2023-08-31T09:26:01;98298.56;;;18.77;100.00
28008;BME280;15333;50.010;20.020;2023-08-31T09:29:02;98308.81;;;19.12;100.00
28008;BME280;15333;50.010;20.020;2023-08-31T09:32:04;98305.69;;;19.46;100.00
28008;BME280;15333;50.010;20.020;2023-08-31T09:35:08;98313.03;;;19.15;100.00
28008;BME280;15333;50.010;20.020;2023-08-31T09:38:09;98314.06;;;19.74;95.06
28008;BME280;15333;50.010;20.020;2023-08-31T09:41:11;98318.34;;;19.83;95.58
28008;BME280;15333;50.010;20.020;2023-08-31T09:44:16;98315.28;;;20.01;89.50
28008;BME280;15333;50.010;20.020;2023-08-31T09:47:19;98318.25;;;19.77;89.40
28008;BME280;15333;50.010;20.020;2023-08-31T09:50:21;98322.63;;;19.63;90.76
28008;BME280;15333;50.010;20.020;2023-08-31T09:53:24;98322.00;;;19.90;86.28
28008;BME280;15333;50.010;20.020;2023-08-31T09:56:27;98340.38;;;19.88;88.37
28008;BME280;15333;50.010;20.020;2023-08-31T09:59:31;98334.31;;;20.16;85.22
28008;BME280;15333;50.010;20.020;2023-08-31T10:02:35;98336.94;;;20.09;84.14
28008;BME280;15333;50.010;20.020;2023-08-31T10:05:36;98332.88;;;20.05;85.23
28008;BME280;15333;50.010;20.020;2023-08-31T10:08:39;98333.88;;;19.60;85.09
28008;BME280;15333;50.010;20.020;2023-08-31T10:11:40;98336.47;;;20.35;82.21
28008;BME280;15333;50.010;20.020;2023-08-31T10:14:43;98340.19;;;19.90;83.88
28008;BME280;15333;50.010;20.020;2023-08-31T10:17:47;98339.34;;;20.19;81.81
28008;BME280;15333;50.010;20.020;2023-08-31T10:20:48;98341.97;;;20.27;83.36
28008;BME280;15333;50.010;20.020;2023-08-31T10:23:50;98339.38;;;20.48;84.85
28008;BME280;15333;50.010;20.020;2023-08-31T10:26:51;98340.38;;;20.47;82.76
28008;BME280;15333;50.010;20.020;2023-08-31T10:29:52;98340.13;;;20.42;83.29
28008;BME280;15333;50.010;20.020;2023-08-31T10:36:16;98339.06;;;20.73;75.81
28008;BME280;15333;50.010;20.020;2023-08-31T10:39:18;98339.56;;;20.17;77.26
28008;BME280;15333;50.010;20.020;2023-08-31T10:42:23;98350.78;;;20.29;75.93
28008;BME280;15333;50.010;20.020;2023-08-31T10:45:25;98352.19;;;20.25;76.92
28008;BME280;15333;50.010;20.020;2023-08-31T10:48:26;98341.63;;;20.30;77.99
28008;BME280;15333;50.010;20.020;2023-08-31T10:51:31;98343.50;;;20.95;77.55
28008;BME280;15333;50.010;20.020;2023-08-31T10:54:33;98333.50;;;20.81;75.33
28008;BME280;15333;50.010;20.020;2023-08-31T10:57:36;98339.94;;;20.94;72.66
28008;BME280;15333;50.010;20.020;2023-08-31T11:00:47;98346.59;;;20.92;71.41
28008;BME280;15333;50.010;20.020;2023-08-31T11:03:59;98353.72;;;20.93;72.38
28008;BME280;15333;50.010;20.020;2023-08-31T11:07:20;98347.38;;;21.22;69.28
28008;BME280;15333;50.010;20.020;2023-08-31T11:10:25;98349.34;;;21.56;70.90
28008;BME280;15333;50.010;20.020;2023-08-31T11:13:29;98347.94;;;21.60;69.88
28008;BME280;15333;50.010;20.020;2023-08-31T11:16:31;98347.25;;;21.79;68.09
28008;BME280;15333;50.010;20.020;2023-08-31T11:19:32;98344.28;;;21.74;68.50
28008;BME280;15333;50.010;20.020;2023-08-31T11:22:34;98335.97;;;21.61;69.40
28008;BME280;15333;50.010;20.020;2023-08-31T11:25:35;98344.38;;;21.17;69.66
28008;BME280;15333;50.010;20.020;2023-08-31T11:28:36;98345.94;;;21.11;68.62
28008;BME280;15333;50.010;20.020;2023-08-31T11:31:38;98338.06;;;20.95;68.95
28008;BME280;15333;50.010;20.020;2023-08-31T11:34:44;98344.81;;;20.84;68.47
28008;BME280;15333;50.010;20.020;2023-08-31T11:37:55;98344.06;;;20.90;69.41
28008;BME280;15333;50.010;20.020;2023-08-31T11:40:56;98349.31;;;20.92;70.11
28008;BME280;15333;50.010;20.020;2023-08-31T11:43:58;98350.53;;;21.10;68.19
28008;BME280;15333;50.010;20.020;2023-08-31T11:47:02;98348.19;;;20.86;68.70
28008;BME280;15333;50.010;20.020;2023-08-31T11:50:03;98339.72;;;20.75;67.82
28008;BME280;15333;50.010;20.020;2023-08-31T11:53:05;98343.56;;;20.65;70.92
28008;BME280;15333;50.010;20.020;2023-08-31T11:56:06;98340.38;;;20.98;71.76
28008;BME280;15333;50.010;20.020;2023-08-31T11:59:11;98349.97;;;20.94;70.29
28008;BME280;15333;50.010;20.020;2023-08-31T12:02:18;98350.53;;;21.10;68.40
28008;BME280;15333;50.010;20.020;2023-08-31T12:05:20;98352.56;;;21.02;68.46
28008;BME280;15333;50.010;20.020;2023-08-31T12:08:25;98343.16;;;21.04;69.28
28008;BME280;15333;50.010;20.020;2023-08-31T12:11:28;98344.53;;;21.15;68.86
28008;BME280;15333;50.010;20.020;2023-08-31T12:14:29;98341.81;;;21.15;67.79
28008;BME280;15333;50.010;20.020;2023-08-31T12:17:30;98337.56;;;21.48;66.91
28008;BME280;15333;50.010;20.020;2023-08-31T12:20:31;98330.84;;;21.72;62.72
28008;BME280;15333;50.010;20.020;2023-08-31T12:23:34;98329.38;;;21.48;62.38
28008;BME280;15333;50.010;20.020;2023-08-31T12:26:35;98327.97;;;21.53;64.56
28008;BME280;15333;50.010;20.020;2023-08-31T12:29:36;98328.34;;;21.49;63.22
28008;BME280;15333;50.010;20.020;2023-08-31T12:32:37;98325.88;;;21.55;62.97
28008;BME280;15333;50.010;20.020;2023-08-31T12:35:39;98315.72;;;21.70;64.39
28008;BME280;15333;50.010;20.020;2023-08-31T12:38:40;98314.97;;;22.10;61.35
28008;BME280;15333;50.010;20.020;2023-08-31T12:41:41;98317.78;;;21.96;58.82
28008;BME280;15333;50.010;20.020;2023-08-31T12:44:43;98317.16;;;21.94;58.83
28008;BME280;15333;50.010;20.020;2023-08-31T12:47:44;98320.94;;;21.65;62.30
28008;BME280;15333;50.010;20.020;2023-08-31T12:50:45;98318.47;;;21.70;61.73
28008;BME280;15333;50.010;20.020;2023-08-31T12:53:46;98318.91;;;21.24;63.24
28008;BME280;15333;50.010;20.020;2023-08-31T12:56:47;98318.34;;;21.57;64.41
28008;BME280;15333;50.010;20.020;2023-08-31T12:59:49;98324.88;;;21.90;65.38
28008;BME280;15333;50.010;20.020;2023-08-31T13:02:50;98318.06;;;21.73;64.02
28008;BME280;15333;50.010;20.020;2023-08-31T13:05:52;98314.34;;;21.53;61.52
28008;BME280;15333;50.010;20.020;2023-08-31T13:08:52;98314.31;;;21.74;62.44
28008;BME280;15333;50.010;20.020;2023-08-31T13:11:53;98321.31;;;21.62;60.87
28008;BME280;15333;50.010;20.020;2023-08-31T13:14:54;98329.06;;;21.58;62.47
28008;BME280;15333;50.010;20.020;2023-08-31T13:17:55;98321.19;;;21.70;60.72
28008;BME280;15333;50.010;20.020;2023-08-31T13:20:56;98320.16;;;21.71;59.97
28008;BME280;15333;50.010;20.020;2023-08-31T13:23:57;98327.03;;;21.95;58.07
28008;BME280;15333;50.010;20.020;2023-08-31T13:27:00;98320.75;;;21.94;56.90
28008;BME280;15333;50.010;20.020;2023-08-31T13:30:01;98314.69;;;21.71;57.06
28008;BME280;15333;50.010;20.020;2023-08-31T13:33:06;98321.09;;;21.84;56.47
28008;BME280;15333;50.010;20.020;2023-08-31T13:36:07;98307.19;;;21.73;55.67
28008;BME280;15333;50.010;20.020;2023-08-31T13:39:09;98320.00;;;21.79;56.63
28008;BME280;15333;50.010;20.020;2023-08-31T13:42:10;98315.56;;;21.99;56.30
28008;BME280;15333;50.010;20.020;2023-08-31T13:45:11;98321.53;;;21.88;56.55
28008;BME280;15333;50.010;20.020;2023-08-31T13:48:12;98317.63;;;21.97;57.25
28008;BME280;15333;50.010;20.020;2023-08-31T13:51:13;98313.72;;;22.06;56.85
28008;BME280;15333;50.010;20.020;2023-08-31T13:54:14;98324.31;;;22.22;56.38
28008;BME280;15333;50.010;20.020;2023-08-31T13:57:15;98326.69;;;22.04;54.31
28008;BME280;15333;50.010;20.020;2023-08-31T14:00:18;98326.19;;;21.94;54.62
28008;BME280;15333;50.010;20.020;2023-08-31T14:03:19;98336.91;;;22.23;55.67
28008;BME280;15333;50.010;20.020;2023-08-31T14:06:20;98340.41;;;22.52;53.62
28008;BME280;15333;50.010;20.020;2023-08-31T14:09:21;98333.66;;;22.48;54.31
28008;BME280;15333;50.010;20.020;2023-08-31T14:12:23;98330.09;;;22.13;56.13
28008;BME280;15333;50.010;20.020;2023-08-31T14:15:25;98344.72;;;22.05;56.64
28008;BME280;15333;50.010;20.020;2023-08-31T14:18:27;98343.03;;;22.04;58.02
28008;BME280;15333;50.010;20.020;2023-08-31T14:21:30;98337.09;;;21.94;57.42
28008;BME280;15333;50.010;20.020;2023-08-31T14:24:31;98338.50;;;21.90;55.58
28008;BME280;15333;50.010;20.020;2023-08-31T14:27:32;98335.31;;;21.80;57.32
28008;BME280;15333;50.010;20.020;2023-08-31T14:30:35;98337.59;;;22.04;56.52
28008;BME280;15333;50.010;20.020;2023-08-31T14:33:36;98346.81;;;22.03;56.84
28008;BME280;15333;50.010;20.020;2023-08-31T14:36:37;98341.13;;;22.33;55.75
28008;BME280;15333;50.010;20.020;2023-08-31T14:39:38;98351.88;;;22.41;55.36
28008;BME280;15333;50.010;20.020;2023-08-31T14:42:39;98361.88;;;21.99;55.92
28008;BME280;15333;50.010;20.020;2023-08-31T14:45:40;98356.59;;;21.70;56.13
28008;BME280;15333;50.010;20.020;2023-08-31T14:48:42;98362.72;;;21.51;56.28
28008;BME280;15333;50.010;20.020;2023-08-31T14:51:42;98378.59;;;21.11;61.13
28008;BME280;15333;50.010;20.020;2023-08-31T14:54:45;98407.81;;;20.52;65.83
28008;BME280;15333;50.010;20.020;2023-08-31T14:57:46;98423.03;;;19.71;71.62
28008;BME280;15333;50.010;20.020;2023-08-31T15:00:47;98433.50;;;19.29;76.18
28008;BME280;15333;50.010;20.020;2023-08-31T15:03:48;98448.25;;;19.03;79.09
28008;BME280;15333;50.010;20.020;2023-08-31T15:06:49;98450.81;;;18.58;83.70
28008;BME280;15333;50.010;20.020;2023-08-31T15:09:52;98468.28;;;18.39;85.78
28008;BME280;15333;50.010;20.020;2023-08-31T15:12:53;98466.38;;;18.48;87.95
28008;BME280;15333;50.010;20.020;2023-08-31T15:15:58;98468.47;;;18.21;90.76
28008;BME280;15333;50.010;20.020;2023-08-31T15:19:00;98481.03;;;17.98;94.67
28008;BME280;15333;50.010;20.020;2023-08-31T15:22:01;98471.25;;;17.81;100.00
28008;BME280;15333;50.010;20.020;2023-08-31T15:25:05;98478.28;;;17.57;100.00
28008;BME280;15333;50.010;20.020;2023-08-31T15:28:07;98487.78;;;17.70;100.00
28008;BME280;15333;50.010;20.020;2023-08-31T15:31:11;98495.59;;;17.65;100.00
28008;BME280;15333;50.010;20.020;2023-08-31T15:34:12;98502.50;;;17.59;100.00
28008;BME280;15333;50.010;20.020;2023-08-31T15:37:14;98485.22;;;17.52;100.00
28008;BME280;15333;50.010;20.020;2023-08-31T15:40:15;98483.06;;;17.64;100.00
28008;BME280;15333;50.010;20.020;2023-08-31T15:43:16;98481.72;;;17.76;100.00
28008;BME280;15333;50.010;20.020;2023-08-31T15:46:17;98479.03;;;17.68;100.00
28008;BME280;15333;50.010;20.020;2023-08-31T15:49:20;98485.38;;;17.50;100.00
28008;BME280;15333;50.010;20.020;2023-08-31T15:52:21;98483.06;;;17.64;100.00